Puerto Belgrano, Argentina
Current Conditions -  °F | °C
As of 11:00 AM on Wednesday 22 Oct 2014 (Local Time) from SAZM Reporting Station
Clear Clear  
Wind Chill: 79°   Ceiling: Unl
Heat Index: 80°   Visibility: 6mi
Dew Point: 57°   Wind: 22mph
Humidity: 47%   Direction: 340°NNW
Pressure: 29.94"   Gusts: NA
Location:  38.92°S, 62.08°W
Report Text: SAZM 221400Z 34019KT CAVOK 26/14 Q1014
Loading
Personal Weather Stations






























Interactive Weather Map New forecast layout! Learn more

10-Day Weather Forecast

Advertisements
Track Severe Weather on mobile